sensor_id;sensor_type;location;lat;lon;timestamp;pressure;altitude;pressure_sealevel;temperature;humidity
22964;BME280;11648;49.306;6.934;2023-09-12T00:00:46;97968.00;;;26.38;60.13
22964;BME280;11648;49.306;6.934;2023-09-12T00:03:12;97967.03;;;26.39;60.28
22964;BME280;11648;49.306;6.934;2023-09-12T00:05:39;97957.72;;;26.43;60.46
22964;BME280;11648;49.306;6.934;2023-09-12T00:08:06;97966.41;;;26.46;60.23
22964;BME280;11648;49.306;6.934;2023-09-12T00:10:33;97964.69;;;26.45;60.32
22964;BME280;11648;49.306;6.934;2023-09-12T00:13:00;97961.00;;;26.46;60.16
22964;BME280;11648;49.306;6.934;2023-09-12T00:15:27;97966.06;;;26.40;60.39
22964;BME280;11648;49.306;6.934;2023-09-12T00:17:54;97969.47;;;26.42;59.96
22964;BME280;11648;49.306;6.934;2023-09-12T00:20:21;97968.28;;;26.35;59.99
22964;BME280;11648;49.306;6.934;2023-09-12T00:22:48;97973.06;;;26.31;60.24
22964;BME280;11648;49.306;6.934;2023-09-12T00:25:15;97969.66;;;26.29;60.08
22964;BME280;11648;49.306;6.934;2023-09-12T00:27:41;97969.28;;;26.23;60.48
22964;BME280;11648;49.306;6.934;2023-09-12T00:30:08;97975.78;;;26.20;60.59
22964;BME280;11648;49.306;6.934;2023-09-12T00:32:35;97966.69;;;26.10;61.43
22964;BME280;11648;49.306;6.934;2023-09-12T00:35:02;97968.91;;;25.94;62.25
22964;BME280;11648;49.306;6.934;2023-09-12T00:37:29;97977.66;;;25.86;62.35
22964;BME280;11648;49.306;6.934;2023-09-12T00:39:55;97979.47;;;25.86;62.33
22964;BME280;11648;49.306;6.934;2023-09-12T00:42:26;97980.34;;;25.86;62.10
22964;BME280;11648;49.306;6.934;2023-09-12T00:44:53;97980.69;;;25.82;62.26
22964;BME280;11648;49.306;6.934;2023-09-12T00:47:20;97972.25;;;25.86;62.27
22964;BME280;11648;49.306;6.934;2023-09-12T00:49:49;97962.19;;;25.77;62.63
22964;BME280;11648;49.306;6.934;2023-09-12T00:52:24;97966.97;;;25.85;62.40
22964;BME280;11648;49.306;6.934;2023-09-12T00:54:53;97972.13;;;25.77;62.91
22964;BME280;11648;49.306;6.934;2023-09-12T00:57:21;97959.13;;;25.82;62.80
22964;BME280;11648;49.306;6.934;2023-09-12T00:59:49;97953.75;;;25.82;62.55
22964;BME280;11648;49.306;6.934;2023-09-12T01:02:16;97954.72;;;25.70;63.15
22964;BME280;11648;49.306;6.934;2023-09-12T01:04:43;97952.75;;;25.72;63.17
22964;BME280;11648;49.306;6.934;2023-09-12T01:07:10;97950.78;;;25.63;63.83
22964;BME280;11648;49.306;6.934;2023-09-12T01:09:37;97946.63;;;25.59;63.71
22964;BME280;11648;49.306;6.934;2023-09-12T01:12:05;97945.75;;;25.58;63.56
22964;BME280;11648;49.306;6.934;2023-09-12T01:14:32;97941.22;;;25.59;63.61
22964;BME280;11648;49.306;6.934;2023-09-12T01:16:59;97939.16;;;25.62;63.57
22964;BME280;11648;49.306;6.934;2023-09-12T01:19:26;97946.16;;;25.65;63.53
22964;BME280;11648;49.306;6.934;2023-09-12T01:24:45;97944.69;;;25.61;63.60
22964;BME280;11648;49.306;6.934;2023-09-12T01:27:30;97946.63;;;25.59;63.55
22964;BME280;11648;49.306;6.934;2023-09-12T01:30:02;97944.06;;;25.57;63.60
22964;BME280;11648;49.306;6.934;2023-09-12T01:32:32;97931.31;;;25.59;63.87
22964;BME280;11648;49.306;6.934;2023-09-12T01:34:59;97929.72;;;25.57;63.84
22964;BME280;11648;49.306;6.934;2023-09-12T01:37:26;97928.59;;;25.59;63.70
22964;BME280;11648;49.306;6.934;2023-09-12T01:39:53;97928.00;;;25.55;63.69
22964;BME280;11648;49.306;6.934;2023-09-12T01:42:21;97919.81;;;25.68;63.30
22964;BME280;11648;49.306;6.934;2023-09-12T01:44:50;97933.28;;;25.68;63.15
22964;BME280;11648;49.306;6.934;2023-09-12T01:47:20;97922.09;;;25.73;63.04
22964;BME280;11648;49.306;6.934;2023-09-12T01:49:55;97929.59;;;25.69;63.10
22964;BME280;11648;49.306;6.934;2023-09-12T01:52:24;97926.16;;;25.78;62.80
22964;BME280;11648;49.306;6.934;2023-09-12T01:54:52;97922.25;;;25.82;62.64
22964;BME280;11648;49.306;6.934;2023-09-12T01:57:19;97927.50;;;25.84;62.92
22964;BME280;11648;49.306;6.934;2023-09-12T01:59:49;97920.16;;;25.86;62.77
22964;BME280;11648;49.306;6.934;2023-09-12T02:02:16;97929.94;;;25.87;63.09
22964;BME280;11648;49.306;6.934;2023-09-12T02:07:36;97929.56;;;25.91;63.00
22964;BME280;11648;49.306;6.934;2023-09-12T02:10:03;97933.38;;;25.89;63.27
22964;BME280;11648;49.306;6.934;2023-09-12T02:12:31;97931.66;;;25.88;63.54
22964;BME280;11648;49.306;6.934;2023-09-12T02:14:59;97941.94;;;25.83;63.36
22964;BME280;11648;49.306;6.934;2023-09-12T02:17:25;97933.38;;;25.89;63.02
22964;BME280;11648;49.306;6.934;2023-09-12T02:19:52;97935.47;;;25.74;63.66
22964;BME280;11648;49.306;6.934;2023-09-12T02:22:19;97937.81;;;25.79;63.74
22964;BME280;11648;49.306;6.934;2023-09-12T02:24:46;97934.97;;;25.80;63.39
22964;BME280;11648;49.306;6.934;2023-09-12T02:27:14;97933.03;;;25.82;63.49
22964;BME280;11648;49.306;6.934;2023-09-12T02:29:42;97936.56;;;25.83;63.71
22964;BME280;11648;49.306;6.934;2023-09-12T02:32:09;97947.13;;;25.75;64.11
22964;BME280;11648;49.306;6.934;2023-09-12T02:34:36;97943.81;;;25.71;64.08
22964;BME280;11648;49.306;6.934;2023-09-12T02:37:03;97944.28;;;25.65;64.42
22964;BME280;11648;49.306;6.934;2023-09-12T02:39:29;97935.59;;;25.62;64.46
22964;BME280;11648;49.306;6.934;2023-09-12T02:41:56;97935.84;;;25.59;64.40
22964;BME280;11648;49.306;6.934;2023-09-12T02:44:23;97937.78;;;25.45;65.29
22964;BME280;11648;49.306;6.934;2023-09-12T02:46:50;97942.28;;;25.45;65.04
22964;BME280;11648;49.306;6.934;2023-09-12T02:49:17;97937.53;;;25.48;64.97
22964;BME280;11648;49.306;6.934;2023-09-12T02:51:45;97941.72;;;25.52;64.94
22964;BME280;11648;49.306;6.934;2023-09-12T02:54:11;97942.59;;;25.53;64.91
22964;BME280;11648;49.306;6.934;2023-09-12T02:56:38;97943.63;;;25.50;64.94
22964;BME280;11648;49.306;6.934;2023-09-12T02:59:05;97950.00;;;25.38;65.38
22964;BME280;11648;49.306;6.934;2023-09-12T03:01:32;97947.31;;;25.27;65.60
22964;BME280;11648;49.306;6.934;2023-09-12T03:03:59;97941.81;;;25.29;65.45
22964;BME280;11648;49.306;6.934;2023-09-12T03:06:28;97952.69;;;25.27;65.92
22964;BME280;11648;49.306;6.934;2023-09-12T03:08:55;97954.16;;;25.31;65.76
22964;BME280;11648;49.306;6.934;2023-09-12T03:11:22;97957.47;;;25.24;66.08
22964;BME280;11648;49.306;6.934;2023-09-12T03:13:49;97955.13;;;25.19;66.15
22964;BME280;11648;49.306;6.934;2023-09-12T03:16:16;97951.47;;;25.20;66.14
22964;BME280;11648;49.306;6.934;2023-09-12T03:18:43;97958.44;;;25.23;65.96
22964;BME280;11648;49.306;6.934;2023-09-12T03:21:10;97953.41;;;25.18;66.05
22964;BME280;11648;49.306;6.934;2023-09-12T03:23:37;97953.88;;;25.12;65.93
22964;BME280;11648;49.306;6.934;2023-09-12T03:26:05;97946.03;;;25.09;66.27
22964;BME280;11648;49.306;6.934;2023-09-12T03:28:33;97937.00;;;25.10;66.00
22964;BME280;11648;49.306;6.934;2023-09-12T03:33:34;97933.31;;;24.76;67.47
22964;BME280;11648;49.306;6.934;2023-09-12T03:36:01;97932.41;;;24.65;68.18
22964;BME280;11648;49.306;6.934;2023-09-12T03:38:28;97927.50;;;24.58;68.08
22964;BME280;11648;49.306;6.934;2023-09-12T03:40:55;97922.13;;;24.58;68.30
22964;BME280;11648;49.306;6.934;2023-09-12T03:43:22;97922.06;;;24.47;68.48
22964;BME280;11648;49.306;6.934;2023-09-12T03:45:49;97915.75;;;24.36;69.04
22964;BME280;11648;49.306;6.934;2023-09-12T03:48:16;97927.16;;;24.39;69.19
22964;BME280;11648;49.306;6.934;2023-09-12T03:50:44;97918.28;;;24.50;68.59
22964;BME280;11648;49.306;6.934;2023-09-12T03:53:14;97914.78;;;24.61;68.45
22964;BME280;11648;49.306;6.934;2023-09-12T03:55:42;97916.03;;;24.68;67.97
22964;BME280;11648;49.306;6.934;2023-09-12T03:58:09;97899.13;;;24.66;67.62
22964;BME280;11648;49.306;6.934;2023-09-12T04:00:36;97901.34;;;24.72;67.38
22964;BME280;11648;49.306;6.934;2023-09-12T04:03:03;97907.22;;;24.66;67.04
22964;BME280;11648;49.306;6.934;2023-09-12T04:05:31;97912.13;;;24.72;66.37
22964;BME280;11648;49.306;6.934;2023-09-12T04:07:58;97906.53;;;24.75;66.14
22964;BME280;11648;49.306;6.934;2023-09-12T04:10:25;97919.56;;;24.68;65.63
22964;BME280;11648;49.306;6.934;2023-09-12T04:12:52;97925.81;;;24.69;65.28
22964;BME280;11648;49.306;6.934;2023-09-12T04:15:18;97924.03;;;24.80;64.70
22964;BME280;11648;49.306;6.934;2023-09-12T04:17:45;97919.50;;;24.81;65.40
22964;BME280;11648;49.306;6.934;2023-09-12T04:20:12;97917.78;;;24.80;64.70
22964;BME280;11648;49.306;6.934;2023-09-12T04:22:42;97923.41;;;24.77;64.90
22964;BME280;11648;49.306;6.934;2023-09-12T04:25:09;97932.69;;;24.73;64.76
22964;BME280;11648;49.306;6.934;2023-09-12T04:27:36;97918.13;;;24.75;64.33
22964;BME280;11648;49.306;6.934;2023-09-12T04:30:04;97918.13;;;24.75;64.11
22964;BME280;11648;49.306;6.934;2023-09-12T04:32:32;97913.84;;;24.73;64.05
22964;BME280;11648;49.306;6.934;2023-09-12T04:34:59;97925.38;;;24.75;64.16
22964;BME280;11648;49.306;6.934;2023-09-12T04:37:26;97921.63;;;24.65;64.18
22964;BME280;11648;49.306;6.934;2023-09-12T04:39:53;97927.50;;;24.58;64.69
22964;BME280;11648;49.306;6.934;2023-09-12T04:42:21;97929.66;;;24.53;64.67
22964;BME280;11648;49.306;6.934;2023-09-12T04:44:48;97928.22;;;24.49;65.70
22964;BME280;11648;49.306;6.934;2023-09-12T04:47:15;97925.16;;;24.30;66.53
22964;BME280;11648;49.306;6.934;2023-09-12T04:49:43;97935.88;;;24.19;66.48
22964;BME280;11648;49.306;6.934;2023-09-12T04:52:10;97932.09;;;24.22;66.40
22964;BME280;11648;49.306;6.934;2023-09-12T04:54:37;97939.94;;;24.25;66.26
22964;BME280;11648;49.306;6.934;2023-09-12T04:57:03;97952.00;;;24.19;66.51
22964;BME280;11648;49.306;6.934;2023-09-12T04:59:30;97946.53;;;24.21;66.25
22964;BME280;11648;49.306;6.934;2023-09-12T05:01:57;97944.81;;;24.20;65.99
22964;BME280;11648;49.306;6.934;2023-09-12T05:04:24;97939.09;;;24.11;66.63
22964;BME280;11648;49.306;6.934;2023-09-12T05:06:51;97941.78;;;24.11;66.32
22964;BME280;11648;49.306;6.934;2023-09-12T05:09:18;97945.78;;;24.06;67.10
22964;BME280;11648;49.306;6.934;2023-09-12T05:11:45;97943.84;;;24.08;66.64
22964;BME280;11648;49.306;6.934;2023-09-12T05:14:11;97940.66;;;24.03;67.21
22964;BME280;11648;49.306;6.934;2023-09-12T05:16:38;97939.78;;;24.02;67.26
22964;BME280;11648;49.306;6.934;2023-09-12T05:19:05;97942.25;;;24.05;66.33
22964;BME280;11648;49.306;6.934;2023-09-12T05:21:34;97937.94;;;24.03;67.40
22964;BME280;11648;49.306;6.934;2023-09-12T05:24:01;97944.94;;;23.93;67.54
22964;BME280;11648;49.306;6.934;2023-09-12T05:26:27;97949.25;;;23.95;68.01
22964;BME280;11648;49.306;6.934;2023-09-12T05:28:54;97952.91;;;23.94;68.31
22964;BME280;11648;49.306;6.934;2023-09-12T05:31:21;97958.75;;;23.88;68.50
22964;BME280;11648;49.306;6.934;2023-09-12T05:33:48;97952.69;;;23.97;68.09
22964;BME280;11648;49.306;6.934;2023-09-12T05:36:15;97953.09;;;24.04;68.03
22964;BME280;11648;49.306;6.934;2023-09-12T05:38:42;97952.66;;;24.10;67.72
22964;BME280;11648;49.306;6.934;2023-09-12T05:41:09;97955.66;;;24.18;67.92
22964;BME280;11648;49.306;6.934;2023-09-12T05:43:36;97962.94;;;24.29;67.45
22964;BME280;11648;49.306;6.934;2023-09-12T05:46:03;97963.63;;;24.43;67.28
22964;BME280;11648;49.306;6.934;2023-09-12T05:48:30;97949.88;;;24.59;66.62
22964;BME280;11648;49.306;6.934;2023-09-12T05:50:57;97956.91;;;24.73;66.48
22964;BME280;11648;49.306;6.934;2023-09-12T05:53:24;97960.88;;;25.03;65.42
22964;BME280;11648;49.306;6.934;2023-09-12T05:55:50;97962.50;;;25.28;64.82
22964;BME280;11648;49.306;6.934;2023-09-12T05:58:18;97973.56;;;25.59;63.94
22964;BME280;11648;49.306;6.934;2023-09-12T06:00:44;97969.06;;;25.81;63.27
22964;BME280;11648;49.306;6.934;2023-09-12T06:03:14;97969.66;;;26.07;62.40
22964;BME280;11648;49.306;6.934;2023-09-12T06:05:41;97975.84;;;26.41;61.32
22964;BME280;11648;49.306;6.934;2023-09-12T06:08:08;97975.22;;;26.91;59.56
22964;BME280;11648;49.306;6.934;2023-09-12T06:10:35;97973.63;;;27.30;58.70
22964;BME280;11648;49.306;6.934;2023-09-12T06:13:02;97969.84;;;27.54;57.09
22964;BME280;11648;49.306;6.934;2023-09-12T06:15:29;97960.03;;;27.92;56.20
22964;BME280;11648;49.306;6.934;2023-09-12T06:17:56;97961.66;;;28.05;55.85
22964;BME280;11648;49.306;6.934;2023-09-12T06:20:23;97947.03;;;28.95;53.56
22964;BME280;11648;49.306;6.934;2023-09-12T06:22:49;97942.41;;;29.80;51.30
22964;BME280;11648;49.306;6.934;2023-09-12T06:25:16;97944.28;;;30.17;49.89
22964;BME280;11648;49.306;6.934;2023-09-12T06:27:43;97942.69;;;29.87;50.17
22964;BME280;11648;49.306;6.934;2023-09-12T06:30:11;97960.78;;;29.96;50.33
22964;BME280;11648;49.306;6.934;2023-09-12T06:32:38;97954.91;;;30.10;49.66
22964;BME280;11648;49.306;6.934;2023-09-12T06:35:05;97954.06;;;30.27;49.02
22964;BME280;11648;49.306;6.934;2023-09-12T06:37:32;97956.19;;;30.96;47.82
22964;BME280;11648;49.306;6.934;2023-09-12T06:39:59;97943.78;;;32.14;44.68
22964;BME280;11648;49.306;6.934;2023-09-12T06:42:26;97933.91;;;33.52;41.48
22964;BME280;11648;49.306;6.934;2023-09-12T06:44:52;97940.69;;;34.36;39.25
22964;BME280;11648;49.306;6.934;2023-09-12T06:47:19;97934.31;;;35.42;36.96
22964;BME280;11648;49.306;6.934;2023-09-12T06:49:46;97924.94;;;36.18;35.81
22964;BME280;11648;49.306;6.934;2023-09-12T06:52:20;97927.00;;;36.81;34.81
22964;BME280;11648;49.306;6.934;2023-09-12T06:54:47;97922.34;;;37.45;32.79
22964;BME280;11648;49.306;6.934;2023-09-12T06:57:13;97920.91;;;38.46;31.59
22964;BME280;11648;49.306;6.934;2023-09-12T06:59:40;97929.41;;;39.51;29.93
22964;BME280;11648;49.306;6.934;2023-09-12T07:02:08;97937.59;;;40.30;28.95
22964;BME280;11648;49.306;6.934;2023-09-12T07:04:36;97930.50;;;41.54;27.10
22964;BME280;11648;49.306;6.934;2023-09-12T07:07:03;97934.78;;;41.75;26.63
22964;BME280;11648;49.306;6.934;2023-09-12T07:09:31;97934.94;;;42.59;25.66
22964;BME280;11648;49.306;6.934;2023-09-12T07:11:58;97937.97;;;43.47;24.67
22964;BME280;11648;49.306;6.934;2023-09-12T07:14:24;97943.56;;;44.17;22.55
22964;BME280;11648;49.306;6.934;2023-09-12T07:16:52;97943.38;;;44.70;21.49
22964;BME280;11648;49.306;6.934;2023-09-12T07:19:19;97945.25;;;44.18;22.49
22964;BME280;11648;49.306;6.934;2023-09-12T07:21:45;97942.63;;;44.74;21.95
22964;BME280;11648;49.306;6.934;2023-09-12T07:24:13;97948.84;;;44.93;21.99
22964;BME280;11648;49.306;6.934;2023-09-12T07:26:40;97949.69;;;44.42;22.57
22964;BME280;11648;49.306;6.934;2023-09-12T07:29:07;97947.19;;;44.29;22.05
22964;BME280;11648;49.306;6.934;2023-09-12T07:31:33;97948.06;;;45.09;21.78
22964;BME280;11648;49.306;6.934;2023-09-12T07:34:00;97955.97;;;44.61;22.08
22964;BME280;11648;49.306;6.934;2023-09-12T07:36:27;97957.34;;;43.89;22.74
22964;BME280;11648;49.306;6.934;2023-09-12T07:38:54;97968.22;;;44.25;22.64
22964;BME280;11648;49.306;6.934;2023-09-12T07:41:21;97966.44;;;44.70;22.20
22964;BME280;11648;49.306;6.934;2023-09-12T07:43:48;97964.28;;;43.56;23.11
22964;BME280;11648;49.306;6.934;2023-09-12T07:46:14;97968.69;;;44.22;22.76
22964;BME280;11648;49.306;6.934;2023-09-12T07:48:41;97962.44;;;45.35;22.10
22964;BME280;11648;49.306;6.934;2023-09-12T07:51:15;97962.78;;;45.38;21.46
22964;BME280;11648;49.306;6.934;2023-09-12T07:53:44;97967.81;;;43.33;23.74
22964;BME280;11648;49.306;6.934;2023-09-12T07:56:11;97969.19;;;40.85;26.44
22964;BME280;11648;49.306;6.934;2023-09-12T07:58:38;97983.97;;;39.01;29.30
22964;BME280;11648;49.306;6.934;2023-09-12T08:01:06;97981.69;;;37.89;31.30
22964;BME280;11648;49.306;6.934;2023-09-12T08:03:37;97984.69;;;37.24;32.59
22964;BME280;11648;49.306;6.934;2023-09-12T08:06:05;98002.47;;;36.41;34.10
22964;BME280;11648;49.306;6.934;2023-09-12T08:08:32;98003.06;;;35.25;36.03
22964;BME280;11648;49.306;6.934;2023-09-12T08:10:59;98003.44;;;34.68;37.52
22964;BME280;11648;49.306;6.934;2023-09-12T08:13:26;98013.84;;;35.49;36.25
22964;BME280;11648;49.306;6.934;2023-09-12T08:15:54;98022.50;;;35.75;35.64
22964;BME280;11648;49.306;6.934;2023-09-12T08:18:21;98019.56;;;35.99;34.81
22964;BME280;11648;49.306;6.934;2023-09-12T08:20:48;98025.22;;;35.15;36.29
22964;BME280;11648;49.306;6.934;2023-09-12T08:23:15;98026.53;;;34.65;38.07
22964;BME280;11648;49.306;6.934;2023-09-12T08:25:42;98033.53;;;33.89;39.46
22964;BME280;11648;49.306;6.934;2023-09-12T08:28:08;98041.06;;;33.46;40.40
22964;BME280;11648;49.306;6.934;2023-09-12T08:30:35;98036.94;;;33.18;41.92
22964;BME280;11648;49.306;6.934;2023-09-12T08:33:02;98032.53;;;32.67;42.42
22964;BME280;11648;49.306;6.934;2023-09-12T08:35:30;98040.38;;;32.28;43.50
22964;BME280;11648;49.306;6.934;2023-09-12T08:37:57;98046.75;;;32.11;44.64
22964;BME280;11648;49.306;6.934;2023-09-12T08:40:23;98044.09;;;32.01;45.23
22964;BME280;11648;49.306;6.934;2023-09-12T08:42:51;98054.34;;;31.81;45.24
22964;BME280;11648;49.306;6.934;2023-09-12T08:45:19;98046.78;;;31.93;45.93
22964;BME280;11648;49.306;6.934;2023-09-12T08:47:51;98048.31;;;31.96;45.98
22964;BME280;11648;49.306;6.934;2023-09-12T08:50:20;98051.09;;;32.04;45.85
22964;BME280;11648;49.306;6.934;2023-09-12T08:52:47;98034.41;;;33.24;42.70
22964;BME280;11648;49.306;6.934;2023-09-12T08:55:33;98024.47;;;35.44;38.13
22964;BME280;11648;49.306;6.934;2023-09-12T08:58:02;98019.84;;;36.48;35.42
22964;BME280;11648;49.306;6.934;2023-09-12T09:00:30;98021.28;;;36.59;35.20
22964;BME280;11648;49.306;6.934;2023-09-12T09:02:58;98016.56;;;36.24;35.88
22964;BME280;11648;49.306;6.934;2023-09-12T09:05:27;98015.63;;;35.11;38.19
22964;BME280;11648;49.306;6.934;2023-09-12T09:07:54;98022.75;;;34.66;39.21
22964;BME280;11648;49.306;6.934;2023-09-12T09:10:22;98029.91;;;34.12;41.00
22964;BME280;11648;49.306;6.934;2023-09-12T09:13:09;98028.63;;;33.68;42.15
22964;BME280;11648;49.306;6.934;2023-09-12T09:15:37;98025.53;;;33.71;41.80
22964;BME280;11648;49.306;6.934;2023-09-12T09:18:11;98024.69;;;33.70;41.64
22964;BME280;11648;49.306;6.934;2023-09-12T09:20:40;98028.97;;;33.73;42.08
22964;BME280;11648;49.306;6.934;2023-09-12T09:23:10;98036.13;;;33.25;42.79
22964;BME280;11648;49.306;6.934;2023-09-12T09:25:51;98057.19;;;32.57;44.34
22964;BME280;11648;49.306;6.934;2023-09-12T09:28:22;98054.50;;;32.31;45.72
22964;BME280;11648;49.306;6.934;2023-09-12T09:30:50;98044.88;;;32.11;45.97
22964;BME280;11648;49.306;6.934;2023-09-12T09:33:18;98033.22;;;33.19;43.57
22964;BME280;11648;49.306;6.934;2023-09-12T09:35:46;98010.16;;;36.96;36.31
22964;BME280;11648;49.306;6.934;2023-09-12T09:38:14;97975.81;;;41.22;29.19
22964;BME280;11648;49.306;6.934;2023-09-12T09:40:44;97966.50;;;43.36;25.64
22964;BME280;11648;49.306;6.934;2023-09-12T09:43:11;97972.75;;;44.43;24.48
22964;BME280;11648;49.306;6.934;2023-09-12T09:45:45;97960.03;;;45.10;23.62
22964;BME280;11648;49.306;6.934;2023-09-12T09:48:19;97949.59;;;47.47;20.76
22964;BME280;11648;49.306;6.934;2023-09-12T09:50:47;97947.53;;;48.43;19.62
22964;BME280;11648;49.306;6.934;2023-09-12T09:53:14;97951.84;;;48.19;19.40
22964;BME280;11648;49.306;6.934;2023-09-12T09:55:40;97956.47;;;48.97;18.95
22964;BME280;11648;49.306;6.934;2023-09-12T09:58:14;97978.84;;;45.48;22.40
22964;BME280;11648;49.306;6.934;2023-09-12T10:00:43;97991.13;;;44.32;23.49
22964;BME280;11648;49.306;6.934;2023-09-12T10:03:12;97985.84;;;42.40;26.29
22964;BME280;11648;49.306;6.934;2023-09-12T10:05:40;97986.31;;;42.37;26.24
22964;BME280;11648;49.306;6.934;2023-09-12T10:08:09;97988.13;;;42.68;26.82
22964;BME280;11648;49.306;6.934;2023-09-12T10:10:38;97986.44;;;42.67;26.72
22964;BME280;11648;49.306;6.934;2023-09-12T10:13:06;97985.28;;;43.75;25.38
22964;BME280;11648;49.306;6.934;2023-09-12T10:15:38;97965.34;;;45.56;22.90
22964;BME280;11648;49.306;6.934;2023-09-12T10:18:09;97967.84;;;44.85;23.25
22964;BME280;11648;49.306;6.934;2023-09-12T10:20:52;97966.50;;;46.66;21.86
22964;BME280;11648;49.306;6.934;2023-09-12T10:25:57;97963.63;;;46.82;21.59
22964;BME280;11648;49.306;6.934;2023-09-12T10:28:24;97964.06;;;48.08;20.15
22964;BME280;11648;49.306;6.934;2023-09-12T10:30:52;97958.25;;;49.29;18.98
22964;BME280;11648;49.306;6.934;2023-09-12T10:33:20;97956.75;;;48.96;19.35
22964;BME280;11648;49.306;6.934;2023-09-12T10:35:48;97951.84;;;49.84;18.51
22964;BME280;11648;49.306;6.934;2023-09-12T10:38:18;97942.44;;;51.23;18.08
22964;BME280;11648;49.306;6.934;2023-09-12T10:40:46;97941.25;;;52.07;17.19
22964;BME280;11648;49.306;6.934;2023-09-12T10:43:14;97933.16;;;52.53;16.81
22964;BME280;11648;49.306;6.934;2023-09-12T10:45:42;97930.25;;;52.35;15.97
22964;BME280;11648;49.306;6.934;2023-09-12T10:48:09;97927.25;;;51.68;16.67
22964;BME280;11648;49.306;6.934;2023-09-12T10:50:38;97939.50;;;52.88;16.20
22964;BME280;11648;49.306;6.934;2023-09-12T10:53:12;97939.00;;;51.75;16.95
22964;BME280;11648;49.306;6.934;2023-09-12T10:55:41;97942.31;;;50.05;18.06
22964;BME280;11648;49.306;6.934;2023-09-12T10:58:09;97948.25;;;48.24;19.26
22964;BME280;11648;49.306;6.934;2023-09-12T11:00:37;97944.66;;;46.57;21.33
22964;BME280;11648;49.306;6.934;2023-09-12T11:05:56;97954.97;;;45.35;23.17
22964;BME280;11648;49.306;6.934;2023-09-12T11:08:23;97955.44;;;43.48;24.63
22964;BME280;11648;49.306;6.934;2023-09-12T11:11:21;97958.13;;;43.13;24.76
22964;BME280;11648;49.306;6.934;2023-09-12T11:14:05;97964.34;;;42.60;26.21
22964;BME280;11648;49.306;6.934;2023-09-12T11:16:32;97957.66;;;42.68;25.83
22964;BME280;11648;49.306;6.934;2023-09-12T11:19:13;97954.97;;;43.51;25.35
22964;BME280;11648;49.306;6.934;2023-09-12T11:21:43;97958.47;;;43.58;25.27
22964;BME280;11648;49.306;6.934;2023-09-12T11:24:12;97950.06;;;43.64;25.37
22964;BME280;11648;49.306;6.934;2023-09-12T11:27:01;97958.63;;;43.74;25.71
22964;BME280;11648;49.306;6.934;2023-09-12T11:29:36;97953.44;;;44.99;23.42
22964;BME280;11648;49.306;6.934;2023-09-12T11:32:04;97939.59;;;47.51;21.43
22964;BME280;11648;49.306;6.934;2023-09-12T11:34:41;97938.16;;;48.65;20.00
22964;BME280;11648;49.306;6.934;2023-09-12T11:37:09;97939.19;;;49.26;19.60
22964;BME280;11648;49.306;6.934;2023-09-12T11:39:37;97934.50;;;50.07;18.09
22964;BME280;11648;49.306;6.934;2023-09-12T11:42:04;97927.22;;;49.56;18.97
22964;BME280;11648;49.306;6.934;2023-09-12T11:44:31;97930.31;;;49.64;18.77
22964;BME280;11648;49.306;6.934;2023-09-12T11:47:02;97929.72;;;49.97;18.66
22964;BME280;11648;49.306;6.934;2023-09-12T11:49:41;97926.47;;;51.92;16.77
22964;BME280;11648;49.306;6.934;2023-09-12T11:52:09;97917.69;;;52.03;17.10
22964;BME280;11648;49.306;6.934;2023-09-12T11:54:36;97926.53;;;52.68;16.67
22964;BME280;11648;49.306;6.934;2023-09-12T11:57:04;97921.75;;;52.68;16.24
22964;BME280;11648;49.306;6.934;2023-09-12T11:59:31;97916.31;;;51.67;16.80
22964;BME280;11648;49.306;6.934;2023-09-12T12:01:58;97919.56;;;52.84;16.20
22964;BME280;11648;49.306;6.934;2023-09-12T12:04:25;97913.22;;;52.50;15.75
22964;BME280;11648;49.306;6.934;2023-09-12T12:06:52;97914.53;;;52.10;16.80
22964;BME280;11648;49.306;6.934;2023-09-12T12:09:19;97917.38;;;52.81;15.77
22964;BME280;11648;49.306;6.934;2023-09-12T12:11:46;97913.94;;;53.21;14.94
22964;BME280;11648;49.306;6.934;2023-09-12T12:14:15;97910.72;;;52.72;15.19
22964;BME280;11648;49.306;6.934;2023-09-12T12:16:43;97909.94;;;51.17;17.13
22964;BME280;11648;49.306;6.934;2023-09-12T12:19:11;97903.31;;;50.98;17.04
22964;BME280;11648;49.306;6.934;2023-09-12T12:21:40;97910.38;;;50.16;17.97
22964;BME280;11648;49.306;6.934;2023-09-12T12:24:10;97912.53;;;50.55;17.02
22964;BME280;11648;49.306;6.934;2023-09-12T12:26:37;97915.38;;;49.08;18.18
22964;BME280;11648;49.306;6.934;2023-09-12T12:29:04;97913.69;;;48.97;17.90
22964;BME280;11648;49.306;6.934;2023-09-12T12:31:31;97918.50;;;47.07;20.14
22964;BME280;11648;49.306;6.934;2023-09-12T12:33:59;97916.25;;;46.82;20.09
22964;BME280;11648;49.306;6.934;2023-09-12T12:36:46;97913.06;;;44.68;22.34
22964;BME280;11648;49.306;6.934;2023-09-12T12:39:23;97919.06;;;43.56;23.52
22964;BME280;11648;49.306;6.934;2023-09-12T12:41:54;97916.56;;;42.65;24.30
22964;BME280;11648;49.306;6.934;2023-09-12T12:44:22;97920.47;;;41.84;25.21
22964;BME280;11648;49.306;6.934;2023-09-12T12:46:50;97927.97;;;41.21;25.57
22964;BME280;11648;49.306;6.934;2023-09-12T12:49:20;97923.22;;;41.04;26.16
22964;BME280;11648;49.306;6.934;2023-09-12T12:51:48;97920.53;;;40.90;26.34
22964;BME280;11648;49.306;6.934;2023-09-12T12:54:15;97919.31;;;40.80;27.08
22964;BME280;11648;49.306;6.934;2023-09-12T12:56:43;97918.16;;;40.56;28.15
22964;BME280;11648;49.306;6.934;2023-09-12T12:59:10;97909.69;;;40.51;27.60
22964;BME280;11648;49.306;6.934;2023-09-12T13:01:38;97916.06;;;40.52;27.89
22964;BME280;11648;49.306;6.934;2023-09-12T13:04:07;97918.84;;;40.45;28.15
22964;BME280;11648;49.306;6.934;2023-09-12T13:06:34;97911.47;;;40.32;28.41
22964;BME280;11648;49.306;6.934;2023-09-12T13:09:03;97911.53;;;40.19;28.47
22964;BME280;11648;49.306;6.934;2023-09-12T13:11:34;97907.06;;;39.98;28.52
22964;BME280;11648;49.306;6.934;2023-09-12T13:14:02;97908.00;;;39.79;29.66
22964;BME280;11648;49.306;6.934;2023-09-12T13:16:35;97900.78;;;39.78;28.92
22964;BME280;11648;49.306;6.934;2023-09-12T13:19:03;97896.13;;;39.46;29.03